sensor_id;sensor_type;location;lat;lon;timestamp;P1;durP1;ratioP1;P2;durP2;ratioP2
66175;SDS011;52977;44.816;20.538;2022-12-29T00:02:16;29.38;;;15.45;;
66175;SDS011;52977;44.816;20.538;2022-12-29T00:04:43;30.48;;;14.52;;
66175;SDS011;52977;44.816;20.538;2022-12-29T00:07:09;34.55;;;13.65;;
66175;SDS011;52977;44.816;20.538;2022-12-29T00:09:36;22.85;;;12.95;;
66175;SDS011;52977;44.816;20.538;2022-12-29T00:12:03;29.10;;;13.35;;
66175;SDS011;52977;44.816;20.538;2022-12-29T00:14:30;29.98;;;13.27;;
66175;SDS011;52977;44.816;20.538;2022-12-29T00:17:14;27.73;;;13.20;;
66175;SDS011;52977;44.816;20.538;2022-12-29T00:19:41;26.35;;;12.95;;
66175;SDS011;52977;44.816;20.538;2022-12-29T00:22:25;24.42;;;12.43;;
66175;SDS011;52977;44.816;20.538;2022-12-29T00:25:10;30.15;;;12.70;;
66175;SDS011;52977;44.816;20.538;2022-12-29T00:27:56;30.52;;;13.60;;
66175;SDS011;52977;44.816;20.538;2022-12-29T00:30:40;29.13;;;13.60;;
66175;SDS011;52977;44.816;20.538;2022-12-29T00:33:31;30.42;;;12.70;;
66175;SDS011;52977;44.816;20.538;2022-12-29T00:36:18;30.52;;;13.10;;
66175;SDS011;52977;44.816;20.538;2022-12-29T00:39:02;28.55;;;13.43;;
66175;SDS011;52977;44.816;20.538;2022-12-29T00:41:50;28.58;;;13.82;;
66175;SDS011;52977;44.816;20.538;2022-12-29T00:44:35;30.23;;;14.38;;
66175;SDS011;52977;44.816;20.538;2022-12-29T00:47:01;31.13;;;14.13;;
66175;SDS011;52977;44.816;20.538;2022-12-29T00:49:28;30.10;;;13.27;;
66175;SDS011;52977;44.816;20.538;2022-12-29T00:51:59;29.45;;;14.13;;
66175;SDS011;52977;44.816;20.538;2022-12-29T00:54:24;28.98;;;13.73;;
66175;SDS011;52977;44.816;20.538;2022-12-29T00:56:51;28.52;;;12.48;;
66175;SDS011;52977;44.816;20.538;2022-12-29T00:59:17;28.85;;;13.23;;
66175;SDS011;52977;44.816;20.538;2022-12-29T01:01:44;29.73;;;13.38;;
66175;SDS011;52977;44.816;20.538;2022-12-29T01:04:11;28.90;;;13.50;;
66175;SDS011;52977;44.816;20.538;2022-12-29T01:06:38;31.17;;;13.32;;
66175;SDS011;52977;44.816;20.538;2022-12-29T01:09:05;23.55;;;12.18;;
66175;SDS011;52977;44.816;20.538;2022-12-29T01:12:00;30.17;;;14.13;;
66175;SDS011;52977;44.816;20.538;2022-12-29T01:14:26;31.92;;;14.00;;
66175;SDS011;52977;44.816;20.538;2022-12-29T01:16:52;28.52;;;13.30;;
66175;SDS011;52977;44.816;20.538;2022-12-29T01:19:19;28.95;;;13.70;;
66175;SDS011;52977;44.816;20.538;2022-12-29T01:21:45;30.08;;;13.63;;
66175;SDS011;52977;44.816;20.538;2022-12-29T01:24:11;28.63;;;13.32;;
66175;SDS011;52977;44.816;20.538;2022-12-29T01:26:37;29.30;;;13.55;;
66175;SDS011;52977;44.816;20.538;2022-12-29T01:29:03;28.00;;;12.98;;
66175;SDS011;52977;44.816;20.538;2022-12-29T01:31:28;31.63;;;13.18;;
66175;SDS011;52977;44.816;20.538;2022-12-29T01:33:54;29.23;;;13.40;;
66175;SDS011;52977;44.816;20.538;2022-12-29T01:36:20;29.25;;;13.15;;
66175;SDS011;52977;44.816;20.538;2022-12-29T01:38:47;26.70;;;13.48;;
66175;SDS011;52977;44.816;20.538;2022-12-29T01:41:14;32.65;;;13.38;;
66175;SDS011;52977;44.816;20.538;2022-12-29T01:43:44;29.27;;;12.63;;
66175;SDS011;52977;44.816;20.538;2022-12-29T01:48:55;27.88;;;12.40;;
66175;SDS011;52977;44.816;20.538;2022-12-29T01:51:26;29.25;;;12.35;;
66175;SDS011;52977;44.816;20.538;2022-12-29T01:53:57;28.23;;;12.52;;
66175;SDS011;52977;44.816;20.538;2022-12-29T01:56:27;29.70;;;14.13;;
66175;SDS011;52977;44.816;20.538;2022-12-29T01:58:56;26.88;;;12.60;;
66175;SDS011;52977;44.816;20.538;2022-12-29T02:01:28;26.45;;;13.40;;
66175;SDS011;52977;44.816;20.538;2022-12-29T02:03:55;31.77;;;13.23;;
66175;SDS011;52977;44.816;20.538;2022-12-29T02:06:28;29.73;;;13.65;;
66175;SDS011;52977;44.816;20.538;2022-12-29T02:08:58;29.95;;;13.60;;
66175;SDS011;52977;44.816;20.538;2022-12-29T02:11:25;28.15;;;12.75;;
66175;SDS011;52977;44.816;20.538;2022-12-29T02:13:54;25.67;;;12.85;;
66175;SDS011;52977;44.816;20.538;2022-12-29T02:40:55;26.35;;;11.90;;
66175;SDS011;52977;44.816;20.538;2022-12-29T02:46:11;28.60;;;12.32;;
66175;SDS011;52977;44.816;20.538;2022-12-29T02:51:35;29.38;;;13.70;;
66175;SDS011;52977;44.816;20.538;2022-12-29T02:54:09;25.42;;;14.30;;
66175;SDS011;52977;44.816;20.538;2022-12-29T02:56:54;31.90;;;14.45;;
66175;SDS011;52977;44.816;20.538;2022-12-29T02:59:20;31.13;;;15.05;;
66175;SDS011;52977;44.816;20.538;2022-12-29T03:02:04;31.35;;;15.43;;
66175;SDS011;52977;44.816;20.538;2022-12-29T03:21:57;36.53;;;14.23;;
66175;SDS011;52977;44.816;20.538;2022-12-29T03:24:52;31.25;;;13.45;;
66175;SDS011;52977;44.816;20.538;2022-12-29T03:27:23;26.92;;;11.23;;
66175;SDS011;52977;44.816;20.538;2022-12-29T03:29:54;25.90;;;11.30;;
66175;SDS011;52977;44.816;20.538;2022-12-29T03:33:00;25.92;;;11.35;;
66175;SDS011;52977;44.816;20.538;2022-12-29T03:35:27;21.70;;;11.27;;
66175;SDS011;52977;44.816;20.538;2022-12-29T03:38:06;25.02;;;11.60;;
66175;SDS011;52977;44.816;20.538;2022-12-29T03:40:37;29.23;;;11.63;;
66175;SDS011;52977;44.816;20.538;2022-12-29T03:43:05;25.25;;;11.65;;
66175;SDS011;52977;44.816;20.538;2022-12-29T03:45:33;26.85;;;12.60;;
66175;SDS011;52977;44.816;20.538;2022-12-29T03:47:59;28.92;;;11.95;;
66175;SDS011;52977;44.816;20.538;2022-12-29T03:50:26;25.92;;;11.60;;
66175;SDS011;52977;44.816;20.538;2022-12-29T03:52:51;21.25;;;10.82;;
66175;SDS011;52977;44.816;20.538;2022-12-29T03:55:17;25.75;;;11.65;;
66175;SDS011;52977;44.816;20.538;2022-12-29T03:57:43;26.98;;;11.65;;
66175;SDS011;52977;44.816;20.538;2022-12-29T04:00:13;26.15;;;12.50;;
66175;SDS011;52977;44.816;20.538;2022-12-29T04:02:43;26.67;;;11.73;;
66175;SDS011;52977;44.816;20.538;2022-12-29T04:05:16;21.55;;;10.93;;
66175;SDS011;52977;44.816;20.538;2022-12-29T04:07:43;25.45;;;10.80;;
66175;SDS011;52977;44.816;20.538;2022-12-29T04:10:09;22.40;;;10.75;;
66175;SDS011;52977;44.816;20.538;2022-12-29T04:12:35;25.17;;;11.50;;
66175;SDS011;52977;44.816;20.538;2022-12-29T04:15:01;28.42;;;13.23;;
66175;SDS011;52977;44.816;20.538;2022-12-29T04:17:29;25.27;;;11.70;;
66175;SDS011;52977;44.816;20.538;2022-12-29T04:19:55;24.15;;;11.68;;
66175;SDS011;52977;44.816;20.538;2022-12-29T04:22:41;29.58;;;12.48;;
66175;SDS011;52977;44.816;20.538;2022-12-29T04:25:07;27.38;;;12.07;;
66175;SDS011;52977;44.816;20.538;2022-12-29T04:27:34;25.85;;;12.55;;
66175;SDS011;52977;44.816;20.538;2022-12-29T04:30:19;26.73;;;12.75;;
66175;SDS011;52977;44.816;20.538;2022-12-29T04:32:59;27.48;;;12.20;;
66175;SDS011;52977;44.816;20.538;2022-12-29T04:35:27;27.10;;;12.55;;
66175;SDS011;52977;44.816;20.538;2022-12-29T04:37:54;25.90;;;12.43;;
66175;SDS011;52977;44.816;20.538;2022-12-29T04:40:20;25.60;;;11.88;;
66175;SDS011;52977;44.816;20.538;2022-12-29T04:42:46;26.58;;;12.73;;
66175;SDS011;52977;44.816;20.538;2022-12-29T04:45:13;26.25;;;12.45;;
66175;SDS011;52977;44.816;20.538;2022-12-29T04:47:58;23.98;;;11.57;;
66175;SDS011;52977;44.816;20.538;2022-12-29T04:50:43;26.70;;;11.98;;
66175;SDS011;52977;44.816;20.538;2022-12-29T04:53:32;27.88;;;13.60;;
66175;SDS011;52977;44.816;20.538;2022-12-29T04:55:59;24.40;;;12.00;;
66175;SDS011;52977;44.816;20.538;2022-12-29T04:58:26;29.50;;;13.27;;
66175;SDS011;52977;44.816;20.538;2022-12-29T05:00:52;28.02;;;13.18;;
66175;SDS011;52977;44.816;20.538;2022-12-29T05:03:22;26.27;;;13.13;;
66175;SDS011;52977;44.816;20.538;2022-12-29T05:05:48;25.42;;;13.10;;
66175;SDS011;52977;44.816;20.538;2022-12-29T05:08:15;29.45;;;13.38;;
66175;SDS011;52977;44.816;20.538;2022-12-29T05:10:43;27.77;;;12.63;;
66175;SDS011;52977;44.816;20.538;2022-12-29T05:13:12;23.00;;;11.73;;
66175;SDS011;52977;44.816;20.538;2022-12-29T05:15:38;28.08;;;12.65;;
66175;SDS011;52977;44.816;20.538;2022-12-29T05:18:05;24.88;;;12.05;;
66175;SDS011;52977;44.816;20.538;2022-12-29T05:20:31;25.52;;;12.45;;
66175;SDS011;52977;44.816;20.538;2022-12-29T05:22:57;27.48;;;12.25;;
66175;SDS011;52977;44.816;20.538;2022-12-29T05:25:23;25.05;;;12.45;;
66175;SDS011;52977;44.816;20.538;2022-12-29T05:28:01;30.95;;;12.75;;
66175;SDS011;52977;44.816;20.538;2022-12-29T05:30:57;28.55;;;14.05;;
66175;SDS011;52977;44.816;20.538;2022-12-29T05:33:24;33.83;;;14.95;;
66175;SDS011;52977;44.816;20.538;2022-12-29T05:35:50;33.38;;;15.13;;
66175;SDS011;52977;44.816;20.538;2022-12-29T05:38:18;35.78;;;14.65;;
66175;SDS011;52977;44.816;20.538;2022-12-29T05:40:44;33.45;;;14.82;;
66175;SDS011;52977;44.816;20.538;2022-12-29T05:43:23;25.85;;;12.55;;
66175;SDS011;52977;44.816;20.538;2022-12-29T05:46:08;28.55;;;13.35;;
66175;SDS011;52977;44.816;20.538;2022-12-29T05:48:46;29.35;;;12.73;;
66175;SDS011;52977;44.816;20.538;2022-12-29T05:51:38;23.80;;;11.27;;
66175;SDS011;52977;44.816;20.538;2022-12-29T05:54:04;25.10;;;11.05;;
66175;SDS011;52977;44.816;20.538;2022-12-29T05:56:31;25.13;;;11.63;;
66175;SDS011;52977;44.816;20.538;2022-12-29T05:58:58;20.70;;;9.98;;
66175;SDS011;52977;44.816;20.538;2022-12-29T06:01:24;21.67;;;9.23;;
66175;SDS011;52977;44.816;20.538;2022-12-29T06:03:50;18.48;;;9.32;;
66175;SDS011;52977;44.816;20.538;2022-12-29T06:06:19;26.02;;;10.07;;
66175;SDS011;52977;44.816;20.538;2022-12-29T06:08:46;30.77;;;13.95;;
66175;SDS011;52977;44.816;20.538;2022-12-29T06:11:12;28.50;;;12.73;;
66175;SDS011;52977;44.816;20.538;2022-12-29T06:13:43;25.75;;;11.52;;
66175;SDS011;52977;44.816;20.538;2022-12-29T06:16:11;21.85;;;10.77;;
66175;SDS011;52977;44.816;20.538;2022-12-29T06:18:38;18.70;;;9.40;;
66175;SDS011;52977;44.816;20.538;2022-12-29T06:21:04;18.73;;;9.10;;
66175;SDS011;52977;44.816;20.538;2022-12-29T06:23:31;19.50;;;9.25;;
66175;SDS011;52977;44.816;20.538;2022-12-29T06:25:58;26.65;;;12.85;;
66175;SDS011;52977;44.816;20.538;2022-12-29T06:28:24;29.77;;;12.80;;
66175;SDS011;52977;44.816;20.538;2022-12-29T06:30:51;28.48;;;12.95;;
66175;SDS011;52977;44.816;20.538;2022-12-29T06:33:17;27.17;;;12.15;;
66175;SDS011;52977;44.816;20.538;2022-12-29T06:35:43;24.58;;;12.07;;
66175;SDS011;52977;44.816;20.538;2022-12-29T06:38:11;26.02;;;13.32;;
66175;SDS011;52977;44.816;20.538;2022-12-29T06:40:37;27.08;;;13.02;;
66175;SDS011;52977;44.816;20.538;2022-12-29T06:43:03;27.05;;;12.40;;
66175;SDS011;52977;44.816;20.538;2022-12-29T06:46:02;24.65;;;10.35;;
66175;SDS011;52977;44.816;20.538;2022-12-29T06:48:28;20.15;;;8.43;;
66175;SDS011;52977;44.816;20.538;2022-12-29T06:50:54;22.80;;;11.10;;
66175;SDS011;52977;44.816;20.538;2022-12-29T06:53:21;31.27;;;14.13;;
66175;SDS011;52977;44.816;20.538;2022-12-29T06:55:47;39.00;;;15.32;;
66175;SDS011;52977;44.816;20.538;2022-12-29T06:58:13;36.72;;;17.25;;
66175;SDS011;52977;44.816;20.538;2022-12-29T07:00:39;40.33;;;16.35;;
66175;SDS011;52977;44.816;20.538;2022-12-29T07:03:05;33.55;;;15.80;;
66175;SDS011;52977;44.816;20.538;2022-12-29T07:05:31;32.10;;;15.77;;
66175;SDS011;52977;44.816;20.538;2022-12-29T07:07:58;33.67;;;13.32;;
66175;SDS011;52977;44.816;20.538;2022-12-29T07:10:25;20.90;;;9.93;;
66175;SDS011;52977;44.816;20.538;2022-12-29T07:12:51;21.63;;;8.35;;
66175;SDS011;52977;44.816;20.538;2022-12-29T07:15:17;15.68;;;7.30;;
66175;SDS011;52977;44.816;20.538;2022-12-29T07:17:44;15.40;;;7.47;;
66175;SDS011;52977;44.816;20.538;2022-12-29T07:20:10;14.30;;;6.47;;
66175;SDS011;52977;44.816;20.538;2022-12-29T07:22:36;13.50;;;6.65;;
66175;SDS011;52977;44.816;20.538;2022-12-29T07:25:02;17.00;;;7.50;;
66175;SDS011;52977;44.816;20.538;2022-12-29T07:27:28;22.67;;;9.43;;
66175;SDS011;52977;44.816;20.538;2022-12-29T07:29:55;34.53;;;15.07;;
66175;SDS011;52977;44.816;20.538;2022-12-29T07:32:21;46.15;;;20.65;;
66175;SDS011;52977;44.816;20.538;2022-12-29T07:34:47;38.97;;;19.17;;
66175;SDS011;52977;44.816;20.538;2022-12-29T07:37:16;44.80;;;20.63;;
66175;SDS011;52977;44.816;20.538;2022-12-29T07:39:43;44.40;;;21.13;;
66175;SDS011;52977;44.816;20.538;2022-12-29T07:42:09;49.03;;;21.33;;
66175;SDS011;52977;44.816;20.538;2022-12-29T07:44:43;49.58;;;20.58;;
66175;SDS011;52977;44.816;20.538;2022-12-29T07:47:17;35.08;;;16.88;;
66175;SDS011;52977;44.816;20.538;2022-12-29T07:49:43;34.47;;;15.23;;
66175;SDS011;52977;44.816;20.538;2022-12-29T07:52:08;29.58;;;13.63;;
66175;SDS011;52977;44.816;20.538;2022-12-29T07:54:34;29.60;;;12.98;;
66175;SDS011;52977;44.816;20.538;2022-12-29T07:57:00;26.50;;;11.30;;
66175;SDS011;52977;44.816;20.538;2022-12-29T07:59:26;28.02;;;11.82;;
66175;SDS011;52977;44.816;20.538;2022-12-29T08:01:53;22.55;;;11.32;;
66175;SDS011;52977;44.816;20.538;2022-12-29T08:04:19;20.70;;;9.75;;
66175;SDS011;52977;44.816;20.538;2022-12-29T08:06:45;23.70;;;10.25;;
66175;SDS011;52977;44.816;20.538;2022-12-29T08:09:11;25.08;;;10.25;;
66175;SDS011;52977;44.816;20.538;2022-12-29T08:11:37;19.45;;;9.25;;
66175;SDS011;52977;44.816;20.538;2022-12-29T08:14:04;26.83;;;11.57;;
66175;SDS011;52977;44.816;20.538;2022-12-29T08:16:30;24.40;;;11.80;;
66175;SDS011;52977;44.816;20.538;2022-12-29T08:18:56;30.55;;;13.98;;
66175;SDS011;52977;44.816;20.538;2022-12-29T08:21:23;35.20;;;16.70;;
66175;SDS011;52977;44.816;20.538;2022-12-29T08:23:49;29.23;;;13.65;;
66175;SDS011;52977;44.816;20.538;2022-12-29T08:26:15;27.35;;;13.10;;
66175;SDS011;52977;44.816;20.538;2022-12-29T08:28:41;26.58;;;13.07;;
66175;SDS011;52977;44.816;20.538;2022-12-29T08:31:07;28.85;;;14.68;;
66175;SDS011;52977;44.816;20.538;2022-12-29T08:33:34;28.85;;;13.88;;
66175;SDS011;52977;44.816;20.538;2022-12-29T08:36:00;22.92;;;11.52;;
66175;SDS011;52977;44.816;20.538;2022-12-29T08:38:28;25.17;;;12.20;;
66175;SDS011;52977;44.816;20.538;2022-12-29T08:40:55;24.90;;;12.35;;
66175;SDS011;52977;44.816;20.538;2022-12-29T08:43:22;27.50;;;12.57;;
66175;SDS011;52977;44.816;20.538;2022-12-29T08:45:49;27.58;;;13.85;;
66175;SDS011;52977;44.816;20.538;2022-12-29T08:48:16;28.65;;;13.90;;
66175;SDS011;52977;44.816;20.538;2022-12-29T08:50:45;27.67;;;13.23;;
66175;SDS011;52977;44.816;20.538;2022-12-29T08:53:12;30.02;;;12.75;;
66175;SDS011;52977;44.816;20.538;2022-12-29T08:55:38;26.15;;;12.65;;
66175;SDS011;52977;44.816;20.538;2022-12-29T08:58:05;32.30;;;13.80;;
66175;SDS011;52977;44.816;20.538;2022-12-29T09:00:32;28.48;;;14.35;;
66175;SDS011;52977;44.816;20.538;2022-12-29T09:02:58;30.83;;;13.35;;
66175;SDS011;52977;44.816;20.538;2022-12-29T09:05:25;27.38;;;13.75;;
66175;SDS011;52977;44.816;20.538;2022-12-29T09:07:51;30.25;;;13.25;;
66175;SDS011;52977;44.816;20.538;2022-12-29T09:10:17;32.40;;;13.13;;
66175;SDS011;52977;44.816;20.538;2022-12-29T09:12:43;29.63;;;14.50;;
66175;SDS011;52977;44.816;20.538;2022-12-29T09:15:09;29.55;;;14.55;;
66175;SDS011;52977;44.816;20.538;2022-12-29T09:17:35;26.02;;;14.27;;
66175;SDS011;52977;44.816;20.538;2022-12-29T09:20:12;34.00;;;15.32;;
66175;SDS011;52977;44.816;20.538;2022-12-29T09:22:40;33.10;;;15.45;;
66175;SDS011;52977;44.816;20.538;2022-12-29T09:25:07;31.85;;;15.95;;
66175;SDS011;52977;44.816;20.538;2022-12-29T09:27:35;33.30;;;16.75;;
66175;SDS011;52977;44.816;20.538;2022-12-29T09:30:05;33.90;;;16.48;;
66175;SDS011;52977;44.816;20.538;2022-12-29T09:32:34;42.88;;;16.85;;
66175;SDS011;52977;44.816;20.538;2022-12-29T09:35:00;39.25;;;17.38;;
66175;SDS011;52977;44.816;20.538;2022-12-29T09:37:27;44.33;;;17.58;;
66175;SDS011;52977;44.816;20.538;2022-12-29T09:39:53;42.03;;;18.73;;
66175;SDS011;52977;44.816;20.538;2022-12-29T09:42:34;36.95;;;16.98;;
66175;SDS011;52977;44.816;20.538;2022-12-29T09:47:46;29.70;;;14.82;;
66175;SDS011;52977;44.816;20.538;2022-12-29T09:50:17;28.40;;;14.48;;
66175;SDS011;52977;44.816;20.538;2022-12-29T09:55:22;33.65;;;15.73;;
66175;SDS011;52977;44.816;20.538;2022-12-29T09:58:02;30.67;;;14.37;;
66175;SDS011;52977;44.816;20.538;2022-12-29T10:00:41;31.75;;;15.70;;
66175;SDS011;52977;44.816;20.538;2022-12-29T10:03:32;35.90;;;16.70;;
66175;SDS011;52977;44.816;20.538;2022-12-29T10:08:52;31.83;;;16.02;;
66175;SDS011;52977;44.816;20.538;2022-12-29T10:11:27;32.45;;;16.50;;
66175;SDS011;52977;44.816;20.538;2022-12-29T10:19:32;40.47;;;17.75;;
66175;SDS011;52977;44.816;20.538;2022-12-29T10:24:55;37.35;;;17.67;;
66175;SDS011;52977;44.816;20.538;2022-12-29T10:27:28;39.53;;;17.35;;
66175;SDS011;52977;44.816;20.538;2022-12-29T10:29:59;37.77;;;17.00;;
66175;SDS011;52977;44.816;20.538;2022-12-29T10:32:43;41.97;;;18.45;;
66175;SDS011;52977;44.816;20.538;2022-12-29T10:35:16;34.03;;;16.80;;
66175;SDS011;52977;44.816;20.538;2022-12-29T10:40:27;35.20;;;16.15;;
66175;SDS011;52977;44.816;20.538;2022-12-29T10:42:57;36.08;;;15.85;;
66175;SDS011;52977;44.816;20.538;2022-12-29T10:45:27;34.63;;;16.27;;
66175;SDS011;52977;44.816;20.538;2022-12-29T10:48:08;41.78;;;17.77;;
66175;SDS011;52977;44.816;20.538;2022-12-29T10:50:41;41.60;;;18.20;;
66175;SDS011;52977;44.816;20.538;2022-12-29T10:53:09;35.45;;;18.15;;
66175;SDS011;52977;44.816;20.538;2022-12-29T10:55:45;35.55;;;17.60;;
66175;SDS011;52977;44.816;20.538;2022-12-29T10:58:12;37.17;;;18.10;;
66175;SDS011;52977;44.816;20.538;2022-12-29T11:00:40;40.17;;;18.60;;
66175;SDS011;52977;44.816;20.538;2022-12-29T11:08:35;37.75;;;19.88;;
66175;SDS011;52977;44.816;20.538;2022-12-29T11:11:05;39.55;;;20.83;;
66175;SDS011;52977;44.816;20.538;2022-12-29T11:13:34;42.08;;;21.00;;
66175;SDS011;52977;44.816;20.538;2022-12-29T11:16:31;39.53;;;19.27;;
66175;SDS011;52977;44.816;20.538;2022-12-29T11:19:00;40.60;;;19.00;;
66175;SDS011;52977;44.816;20.538;2022-12-29T11:23:59;32.78;;;16.35;;
66175;SDS011;52977;44.816;20.538;2022-12-29T11:26:28;36.80;;;17.83;;
66175;SDS011;52977;44.816;20.538;2022-12-29T11:31:40;41.13;;;17.42;;
66175;SDS011;52977;44.816;20.538;2022-12-29T11:34:08;33.22;;;16.88;;
66175;SDS011;52977;44.816;20.538;2022-12-29T11:36:35;37.95;;;19.20;;
66175;SDS011;52977;44.816;20.538;2022-12-29T11:39:01;38.30;;;18.27;;
66175;SDS011;52977;44.816;20.538;2022-12-29T11:41:29;44.95;;;20.80;;
66175;SDS011;52977;44.816;20.538;2022-12-29T11:43:58;42.45;;;19.85;;
66175;SDS011;52977;44.816;20.538;2022-12-29T11:46:36;41.72;;;20.48;;
66175;SDS011;52977;44.816;20.538;2022-12-29T11:49:04;46.03;;;20.80;;
66175;SDS011;52977;44.816;20.538;2022-12-29T11:51:37;52.58;;;23.00;;
66175;SDS011;52977;44.816;20.538;2022-12-29T11:54:09;48.50;;;22.77;;
66175;SDS011;52977;44.816;20.538;2022-12-29T11:56:45;50.63;;;22.00;;
66175;SDS011;52977;44.816;20.538;2022-12-29T12:01:53;51.53;;;20.77;;
66175;SDS011;52977;44.816;20.538;2022-12-29T12:04:24;38.90;;;18.85;;
66175;SDS011;52977;44.816;20.538;2022-12-29T12:06:58;34.95;;;15.32;;
66175;SDS011;52977;44.816;20.538;2022-12-29T12:09:29;33.85;;;16.27;;
66175;SDS011;52977;44.816;20.538;2022-12-29T12:12:01;33.20;;;17.67;;
66175;SDS011;52977;44.816;20.538;2022-12-29T12:14:36;38.28;;;18.10;;
66175;SDS011;52977;44.816;20.538;2022-12-29T12:17:30;38.03;;;16.83;;
66175;SDS011;52977;44.816;20.538;2022-12-29T12:20:16;44.00;;;18.20;;
66175;SDS011;52977;44.816;20.538;2022-12-29T12:22:58;35.10;;;17.15;;
66175;SDS011;52977;44.816;20.538;2022-12-29T12:25:35;36.20;;;17.13;;
66175;SDS011;52977;44.816;20.538;2022-12-29T12:28:09;39.13;;;17.23;;
66175;SDS011;52977;44.816;20.538;2022-12-29T12:30:45;37.70;;;18.13;;
66175;SDS011;52977;44.816;20.538;2022-12-29T12:33:29;38.00;;;17.05;;
66175;SDS011;52977;44.816;20.538;2022-12-29T12:46:18;30.40;;;13.80;;
66175;SDS011;52977;44.816;20.538;2022-12-29T12:51:32;28.33;;;13.63;;
66175;SDS011;52977;44.816;20.538;2022-12-29T13:00:01;26.88;;;13.45;;
66175;SDS011;52977;44.816;20.538;2022-12-29T13:05:17;27.23;;;13.73;;
66175;SDS011;52977;44.816;20.538;2022-12-29T13:07:59;28.65;;;13.18;;
66175;SDS011;52977;44.816;20.538;2022-12-29T13:19:45;22.20;;;11.63;;
66175;SDS011;52977;44.816;20.538;2022-12-29T13:27:34;29.10;;;13.15;;
66175;SDS011;52977;44.816;20.538;2022-12-29T13:30:03;25.70;;;12.95;;
66175;SDS011;52977;44.816;20.538;2022-12-29T13:40:51;25.25;;;12.68;;
66175;SDS011;52977;44.816;20.538;2022-12-29T13:43:21;28.47;;;13.07;;
66175;SDS011;52977;44.816;20.538;2022-12-29T13:45:50;26.33;;;13.32;;
66175;SDS011;52977;44.816;20.538;2022-12-29T13:48:26;30.98;;;13.73;;
66175;SDS011;52977;44.816;20.538;2022-12-29T13:51:02;31.60;;;14.13;;
66175;SDS011;52977;44.816;20.538;2022-12-29T14:04:02;28.03;;;14.27;;
66175;SDS011;52977;44.816;20.538;2022-12-29T14:06:34;27.95;;;13.30;;
66175;SDS011;52977;44.816;20.538;2022-12-29T14:09:06;27.60;;;13.05;;
66175;SDS011;52977;44.816;20.538;2022-12-29T14:17:42;32.42;;;14.52;;
66175;SDS011;52977;44.816;20.538;2022-12-29T14:20:17;31.27;;;14.60;;
66175;SDS011;52977;44.816;20.538;2022-12-29T14:22:56;32.65;;;15.30;;
66175;SDS011;52977;44.816;20.538;2022-12-29T14:28:54;34.58;;;14.93;;
66175;SDS011;52977;44.816;20.538;2022-12-29T14:33:39;31.25;;;15.95;;
66175;SDS011;52977;44.816;20.538;2022-12-29T14:36:25;34.22;;;16.48;;
66175;SDS011;52977;44.816;20.538;2022-12-29T14:38:59;31.75;;;15.57;;
66175;SDS011;52977;44.816;20.538;2022-12-29T14:41:30;36.45;;;15.73;;
66175;SDS011;52977;44.816;20.538;2022-12-29T14:49:16;50.05;;;19.40;;
66175;SDS011;52977;44.816;20.538;2022-12-29T14:51:44;54.83;;;21.75;;
66175;SDS011;52977;44.816;20.538;2022-12-29T14:54:54;50.47;;;21.88;;
66175;SDS011;52977;44.816;20.538;2022-12-29T14:57:07;47.60;;;21.45;;
66175;SDS011;52977;44.816;20.538;2022-12-29T14:59:39;50.95;;;21.08;;
66175;SDS011;52977;44.816;20.538;2022-12-29T15:02:11;61.13;;;22.35;;
66175;SDS011;52977;44.816;20.538;2022-12-29T15:04:44;51.03;;;22.13;;
66175;SDS011;52977;44.816;20.538;2022-12-29T15:07:11;50.33;;;20.95;;
66175;SDS011;52977;44.816;20.538;2022-12-29T15:15:01;48.55;;;21.85;;
66175;SDS011;52977;44.816;20.538;2022-12-29T15:19:53;46.30;;;21.83;;
66175;SDS011;52977;44.816;20.538;2022-12-29T15:22:20;53.28;;;22.13;;
66175;SDS011;52977;44.816;20.538;2022-12-29T15:24:46;49.30;;;20.67;;
66175;SDS011;52977;44.816;20.538;2022-12-29T15:27:15;48.25;;;21.60;;
66175;SDS011;52977;44.816;20.538;2022-12-29T15:29:45;43.90;;;20.05;;
66175;SDS011;52977;44.816;20.538;2022-12-29T15:34:40;41.35;;;17.50;;
66175;SDS011;52977;44.816;20.538;2022-12-29T15:37:06;42.00;;;17.38;;
66175;SDS011;52977;44.816;20.538;2022-12-29T15:39:33;35.30;;;15.68;;
66175;SDS011;52977;44.816;20.538;2022-12-29T15:42:00;37.92;;;16.45;;
66175;SDS011;52977;44.816;20.538;2022-12-29T15:44:44;38.38;;;15.73;;
66175;SDS011;52977;44.816;20.538;2022-12-29T15:47:21;29.38;;;14.05;;
66175;SDS011;52977;44.816;20.538;2022-12-29T15:49:49;32.97;;;14.15;;
66175;SDS011;52977;44.816;20.538;2022-12-29T15:52:18;31.02;;;14.32;;
66175;SDS011;52977;44.816;20.538;2022-12-29T15:54:46;31.98;;;13.57;;
66175;SDS011;52977;44.816;20.538;2022-12-29T15:57:25;29.10;;;13.10;;
66175;SDS011;52977;44.816;20.538;2022-12-29T15:59:57;26.10;;;11.70;;
66175;SDS011;52977;44.816;20.538;2022-12-29T16:02:24;26.65;;;11.15;;
66175;SDS011;52977;44.816;20.538;2022-12-29T16:04:51;26.02;;;10.00;;
66175;SDS011;52977;44.816;20.538;2022-12-29T16:07:25;19.23;;;9.30;;
66175;SDS011;52977;44.816;20.538;2022-12-29T16:09:57;18.27;;;8.45;;
66175;SDS011;52977;44.816;20.538;2022-12-29T16:12:28;15.70;;;7.22;;
66175;SDS011;52977;44.816;20.538;2022-12-29T16:14:58;18.25;;;8.35;;
66175;SDS011;52977;44.816;20.538;2022-12-29T16:17:25;18.73;;;8.07;;
66175;SDS011;52977;44.816;20.538;2022-12-29T16:20:02;21.27;;;7.97;;
66175;SDS011;52977;44.816;20.538;2022-12-29T16:22:42;23.88;;;8.25;;
66175;SDS011;52977;44.816;20.538;2022-12-29T16:28:01;18.05;;;8.20;;
66175;SDS011;52977;44.816;20.538;2022-12-29T16:30:39;22.25;;;8.48;;
66175;SDS011;52977;44.816;20.538;2022-12-29T16:33:06;18.38;;;8.63;;
66175;SDS011;52977;44.816;20.538;2022-12-29T16:35:52;18.85;;;7.72;;
66175;SDS011;52977;44.816;20.538;2022-12-29T16:38:19;13.65;;;7.03;;
66175;SDS011;52977;44.816;20.538;2022-12-29T16:43:27;16.92;;;6.88;;
66175;SDS011;52977;44.816;20.538;2022-12-29T16:48:28;21.13;;;7.10;;
66175;SDS011;52977;44.816;20.538;2022-12-29T16:51:10;15.93;;;6.97;;
66175;SDS011;52977;44.816;20.538;2022-12-29T16:53:40;16.70;;;6.95;;
66175;SDS011;52977;44.816;20.538;2022-12-29T16:56:19;14.70;;;7.07;;
66175;SDS011;52977;44.816;20.538;2022-12-29T16:58:52;19.17;;;8.63;;
66175;SDS011;52977;44.816;20.538;2022-12-29T17:01:30;18.88;;;8.13;;
66175;SDS011;52977;44.816;20.538;2022-12-29T17:03:58;19.38;;;8.32;;
66175;SDS011;52977;44.816;20.538;2022-12-29T17:06:30;20.63;;;8.75;;
66175;SDS011;52977;44.816;20.538;2022-12-29T17:08:57;20.58;;;8.57;;
66175;SDS011;52977;44.816;20.538;2022-12-29T17:11:31;18.60;;;8.32;;
66175;SDS011;52977;44.816;20.538;2022-12-29T17:17:05;18.13;;;8.23;;
66175;SDS011;52977;44.816;20.538;2022-12-29T17:19:55;18.77;;;7.78;;
66175;SDS011;52977;44.816;20.538;2022-12-29T17:22:28;20.97;;;8.37;;
66175;SDS011;52977;44.816;20.538;2022-12-29T17:24:57;16.77;;;7.75;;
66175;SDS011;52977;44.816;20.538;2022-12-29T17:29:51;23.25;;;7.38;;
66175;SDS011;52977;44.816;20.538;2022-12-29T17:32:19;18.67;;;7.30;;